sensor_id;sensor_type;location;lat;lon;timestamp;pressure;altitude;pressure_sealevel;temperature;humidity
64189;BME280;50493;50.970;10.082;2023-02-28T00:00:29;100558.56;;;0.44;60.32
64189;BME280;50493;50.970;10.082;2023-02-28T00:02:54;100566.03;;;0.38;63.41
64189;BME280;50493;50.970;10.082;2023-02-28T00:05:22;100557.56;;;0.41;59.65
64189;BME280;50493;50.970;10.082;2023-02-28T00:07:50;100559.44;;;0.45;59.01
64189;BME280;50493;50.970;10.082;2023-02-28T00:10:17;100559.66;;;0.28;57.86
64189;BME280;50493;50.970;10.082;2023-02-28T00:12:48;100559.69;;;0.51;62.36
64189;BME280;50493;50.970;10.082;2023-02-28T00:15:13;100559.56;;;0.48;58.30
64189;BME280;50493;50.970;10.082;2023-02-28T00:17:39;100554.97;;;0.63;56.75
64189;BME280;50493;50.970;10.082;2023-02-28T00:20:06;100559.28;;;-0.25;57.94
64189;BME280;50493;50.970;10.082;2023-02-28T00:22:34;100558.66;;;0.02;64.65
64189;BME280;50493;50.970;10.082;2023-02-28T00:25:00;100559.53;;;-0.40;58.30
64189;BME280;50493;50.970;10.082;2023-02-28T00:27:26;100552.00;;;-0.35;64.76
64189;BME280;50493;50.970;10.082;2023-02-28T00:29:51;100556.50;;;-0.30;58.15
64189;BME280;50493;50.970;10.082;2023-02-28T00:32:16;100554.25;;;-0.01;63.08
64189;BME280;50493;50.970;10.082;2023-02-28T00:34:44;100550.66;;;-0.04;57.58
64189;BME280;50493;50.970;10.082;2023-02-28T00:37:10;100551.47;;;0.16;65.15
64189;BME280;50493;50.970;10.082;2023-02-28T00:39:37;100550.44;;;0.33;64.64
64189;BME280;50493;50.970;10.082;2023-02-28T00:42:05;100555.13;;;0.44;64.52
64189;BME280;50493;50.970;10.082;2023-02-28T00:44:31;100547.41;;;0.44;64.31
64189;BME280;50493;50.970;10.082;2023-02-28T00:46:56;100544.69;;;0.63;64.14
64189;BME280;50493;50.970;10.082;2023-02-28T00:49:22;100550.66;;;0.62;63.92
64189;BME280;50493;50.970;10.082;2023-02-28T00:51:48;100550.66;;;0.62;63.93
64189;BME280;50493;50.970;10.082;2023-02-28T00:54:13;100550.09;;;0.69;62.01
64189;BME280;50493;50.970;10.082;2023-02-28T00:56:39;100550.53;;;0.59;63.43
64189;BME280;50493;50.970;10.082;2023-02-28T00:59:05;100552.66;;;0.69;62.24
64189;BME280;50493;50.970;10.082;2023-02-28T01:01:31;100552.66;;;0.69;58.51
64189;BME280;50493;50.970;10.082;2023-02-28T01:03:57;100549.06;;;0.66;62.41
64189;BME280;50493;50.970;10.082;2023-02-28T01:06:22;100548.84;;;0.60;63.57
64189;BME280;50493;50.970;10.082;2023-02-28T01:08:48;100550.50;;;0.58;64.34
64189;BME280;50493;50.970;10.082;2023-02-28T01:11:15;100549.53;;;0.56;63.96
64189;BME280;50493;50.970;10.082;2023-02-28T01:13:42;100542.13;;;0.63;57.81
64189;BME280;50493;50.970;10.082;2023-02-28T01:16:08;100552.25;;;0.59;63.15
64189;BME280;50493;50.970;10.082;2023-02-28T01:18:34;100553.47;;;0.68;59.32
64189;BME280;50493;50.970;10.082;2023-02-28T01:21:03;100553.22;;;0.62;59.87
64189;BME280;50493;50.970;10.082;2023-02-28T01:23:29;100551.00;;;0.49;62.05
64189;BME280;50493;50.970;10.082;2023-02-28T01:25:54;100550.19;;;0.27;65.26
64189;BME280;50493;50.970;10.082;2023-02-28T01:28:20;100547.25;;;0.41;59.36
64189;BME280;50493;50.970;10.082;2023-02-28T01:30:47;100550.78;;;0.43;63.84
64189;BME280;50493;50.970;10.082;2023-02-28T01:33:14;100551.50;;;0.39;64.69
64189;BME280;50493;50.970;10.082;2023-02-28T01:35:40;100549.28;;;0.48;64.37
64189;BME280;50493;50.970;10.082;2023-02-28T01:38:05;100547.25;;;0.41;63.75
64189;BME280;50493;50.970;10.082;2023-02-28T01:40:30;100544.94;;;0.47;63.22
64189;BME280;50493;50.970;10.082;2023-02-28T01:42:56;100545.94;;;0.28;61.61
64189;BME280;50493;50.970;10.082;2023-02-28T01:45:23;100539.69;;;0.21;60.29
64189;BME280;50493;50.970;10.082;2023-02-28T01:47:53;100545.84;;;0.49;63.35
64189;BME280;50493;50.970;10.082;2023-02-28T01:50:23;100537.44;;;0.53;62.83
64189;BME280;50493;50.970;10.082;2023-02-28T01:52:50;100536.75;;;0.34;64.61
64189;BME280;50493;50.970;10.082;2023-02-28T01:55:21;100530.47;;;0.50;64.21
64189;BME280;50493;50.970;10.082;2023-02-28T01:57:50;100527.78;;;0.47;61.76
64189;BME280;50493;50.970;10.082;2023-02-28T02:00:19;100533.47;;;0.39;65.01
64189;BME280;50493;50.970;10.082;2023-02-28T02:02:48;100532.19;;;0.50;62.92
64189;BME280;50493;50.970;10.082;2023-02-28T02:05:17;100528.91;;;0.54;60.79
64189;BME280;50493;50.970;10.082;2023-02-28T02:07:46;100520.72;;;0.64;62.83
64189;BME280;50493;50.970;10.082;2023-02-28T02:10:15;100515.28;;;0.34;64.02
64189;BME280;50493;50.970;10.082;2023-02-28T02:15:32;100521.38;;;0.59;60.63
64189;BME280;50493;50.970;10.082;2023-02-28T02:18:03;100515.22;;;0.55;62.85
64189;BME280;50493;50.970;10.082;2023-02-28T02:26:51;100516.28;;;0.37;61.75
64189;BME280;50493;50.970;10.082;2023-02-28T02:29:37;100515.53;;;0.40;63.20
64189;BME280;50493;50.970;10.082;2023-02-28T02:32:19;100514.22;;;0.51;63.59
64189;BME280;50493;50.970;10.082;2023-02-28T02:34:59;100513.81;;;0.41;63.11
64189;BME280;50493;50.970;10.082;2023-02-28T02:37:33;100509.97;;;0.52;61.55
64189;BME280;50493;50.970;10.082;2023-02-28T02:40:08;100516.34;;;0.16;64.66
64189;BME280;50493;50.970;10.082;2023-02-28T02:42:40;100513.56;;;0.33;63.54
64189;BME280;50493;50.970;10.082;2023-02-28T02:45:11;100512.50;;;0.28;64.04
64189;BME280;50493;50.970;10.082;2023-02-28T02:47:38;100520.22;;;0.28;63.53
64189;BME280;50493;50.970;10.082;2023-02-28T02:50:10;100508.69;;;0.41;58.16
64189;BME280;50493;50.970;10.082;2023-02-28T02:52:39;100515.28;;;0.34;63.64
64189;BME280;50493;50.970;10.082;2023-02-28T02:55:07;100512.53;;;0.07;64.60
64189;BME280;50493;50.970;10.082;2023-02-28T02:57:35;100514.34;;;0.09;57.56
64189;BME280;50493;50.970;10.082;2023-02-28T03:00:03;100523.88;;;0.12;59.54
64189;BME280;50493;50.970;10.082;2023-02-28T03:02:31;100526.25;;;0.07;63.50
64189;BME280;50493;50.970;10.082;2023-02-28T03:05:01;100526.19;;;-0.17;64.49
64189;BME280;50493;50.970;10.082;2023-02-28T03:07:29;100523.41;;;-0.01;63.79
64189;BME280;50493;50.970;10.082;2023-02-28T03:09:56;100520.72;;;0.19;64.19
64189;BME280;50493;50.970;10.082;2023-02-28T03:12:23;100526.13;;;0.25;64.01
64189;BME280;50493;50.970;10.082;2023-02-28T03:14:56;100514.63;;;0.40;57.11
64189;BME280;50493;50.970;10.082;2023-02-28T03:17:40;100519.09;;;0.21;63.82
64189;BME280;50493;50.970;10.082;2023-02-28T03:20:17;100514.06;;;0.24;64.73
64189;BME280;50493;50.970;10.082;2023-02-28T03:22:57;100518.38;;;0.02;60.19
64189;BME280;50493;50.970;10.082;2023-02-28T03:25:32;100515.34;;;0.13;61.05
64189;BME280;50493;50.970;10.082;2023-02-28T03:28:05;100507.50;;;0.32;55.37
64189;BME280;50493;50.970;10.082;2023-02-28T03:30:38;100513.16;;;0.22;60.15
64189;BME280;50493;50.970;10.082;2023-02-28T03:33:08;100509.03;;;0.27;60.64
64189;BME280;50493;50.970;10.082;2023-02-28T03:35:38;100508.78;;;-0.02;64.62
64189;BME280;50493;50.970;10.082;2023-02-28T03:38:10;100510.06;;;0.10;55.79
64189;BME280;50493;50.970;10.082;2023-02-28T03:40:39;100512.00;;;-0.28;59.39
64189;BME280;50493;50.970;10.082;2023-02-28T03:43:10;100504.25;;;-0.30;55.01
64189;BME280;50493;50.970;10.082;2023-02-28T03:45:38;100508.19;;;-0.17;61.08
64189;BME280;50493;50.970;10.082;2023-02-28T03:48:11;100510.19;;;-0.10;58.10
64189;BME280;50493;50.970;10.082;2023-02-28T03:50:39;100501.66;;;-0.09;63.40
64189;BME280;50493;50.970;10.082;2023-02-28T03:53:11;100510.88;;;-0.14;63.91
64189;BME280;50493;50.970;10.082;2023-02-28T03:55:42;100507.50;;;-0.13;60.18
64189;BME280;50493;50.970;10.082;2023-02-28T03:58:16;100506.38;;;0.03;60.66
64189;BME280;50493;50.970;10.082;2023-02-28T04:00:47;100510.28;;;-0.07;60.60
64189;BME280;50493;50.970;10.082;2023-02-28T04:03:14;100505.38;;;-0.23;64.96
64189;BME280;50493;50.970;10.082;2023-02-28T04:05:48;100515.75;;;-0.20;63.81
64189;BME280;50493;50.970;10.082;2023-02-28T04:08:16;100511.25;;;-0.26;59.64
64189;BME280;50493;50.970;10.082;2023-02-28T04:10:45;100512.88;;;-0.07;62.87
64189;BME280;50493;50.970;10.082;2023-02-28T04:13:13;100504.72;;;-0.18;64.75
64189;BME280;50493;50.970;10.082;2023-02-28T04:15:39;100511.47;;;0.01;52.88
64189;BME280;50493;50.970;10.082;2023-02-28T04:18:04;100512.47;;;-0.39;56.22
64189;BME280;50493;50.970;10.082;2023-02-28T04:20:29;100516.81;;;-0.15;55.60
64189;BME280;50493;50.970;10.082;2023-02-28T04:22:55;100511.63;;;-0.17;53.38
64189;BME280;50493;50.970;10.082;2023-02-28T04:25:21;100516.75;;;0.05;57.29
64189;BME280;50493;50.970;10.082;2023-02-28T04:27:47;100512.97;;;-0.04;63.63
64189;BME280;50493;50.970;10.082;2023-02-28T04:30:12;100518.38;;;0.02;63.13
64189;BME280;50493;50.970;10.082;2023-02-28T04:32:38;100520.63;;;-0.05;64.79
64189;BME280;50493;50.970;10.082;2023-02-28T04:35:04;100517.91;;;-0.10;65.11
64189;BME280;50493;50.970;10.082;2023-02-28T04:37:29;100518.91;;;-0.27;65.28
64189;BME280;50493;50.970;10.082;2023-02-28T04:39:55;100526.78;;;-0.23;65.10
64189;BME280;50493;50.970;10.082;2023-02-28T04:42:21;100519.03;;;-0.24;65.32
64189;BME280;50493;50.970;10.082;2023-02-28T04:44:47;100521.16;;;-0.14;65.32
64189;BME280;50493;50.970;10.082;2023-02-28T04:47:12;100521.91;;;0.05;62.21
64189;BME280;50493;50.970;10.082;2023-02-28T04:49:37;100524.09;;;-0.05;64.13
64189;BME280;50493;50.970;10.082;2023-02-28T04:52:03;100530.91;;;0.16;57.26
64189;BME280;50493;50.970;10.082;2023-02-28T04:54:29;100519.84;;;-0.25;55.75
64189;BME280;50493;50.970;10.082;2023-02-28T04:56:54;100529.31;;;-0.03;58.73
64189;BME280;50493;50.970;10.082;2023-02-28T04:59:21;100524.81;;;0.14;61.38
64189;BME280;50493;50.970;10.082;2023-02-28T05:01:47;100525.38;;;0.07;59.84
64189;BME280;50493;50.970;10.082;2023-02-28T05:04:14;100528.28;;;-0.07;62.46
64189;BME280;50493;50.970;10.082;2023-02-28T05:06:39;100520.66;;;-0.26;56.42
64189;BME280;50493;50.970;10.082;2023-02-28T05:09:04;100522.16;;;-0.10;53.24
64189;BME280;50493;50.970;10.082;2023-02-28T05:11:31;100533.06;;;-0.16;58.20
64189;BME280;50493;50.970;10.082;2023-02-28T05:14:00;100537.06;;;-0.23;58.15
64189;BME280;50493;50.970;10.082;2023-02-28T05:16:27;100538.72;;;-0.25;63.78
64189;BME280;50493;50.970;10.082;2023-02-28T05:18:52;100535.25;;;-0.25;64.22
64189;BME280;50493;50.970;10.082;2023-02-28T05:21:28;100539.78;;;-0.20;61.58
64189;BME280;50493;50.970;10.082;2023-02-28T05:23:54;100539.03;;;-0.17;63.38
64189;BME280;50493;50.970;10.082;2023-02-28T05:26:20;100541.47;;;-0.20;58.77
64189;BME280;50493;50.970;10.082;2023-02-28T05:28:45;100537.84;;;-0.47;64.96
64189;BME280;50493;50.970;10.082;2023-02-28T05:31:11;100536.81;;;-0.50;61.58
64189;BME280;50493;50.970;10.082;2023-02-28T05:33:37;100552.13;;;-0.73;55.10
64189;BME280;50493;50.970;10.082;2023-02-28T05:36:03;100539.84;;;-0.60;57.14
64189;BME280;50493;50.970;10.082;2023-02-28T05:38:29;100544.41;;;-0.73;64.99
64189;BME280;50493;50.970;10.082;2023-02-28T05:40:54;100556.72;;;-1.24;52.86
64189;BME280;50493;50.970;10.082;2023-02-28T05:43:20;100557.94;;;-1.16;61.36
64189;BME280;50493;50.970;10.082;2023-02-28T05:45:45;100555.53;;;-0.93;61.78
64189;BME280;50493;50.970;10.082;2023-02-28T05:48:10;100557.81;;;-1.19;54.40
64189;BME280;50493;50.970;10.082;2023-02-28T05:50:37;100563.75;;;-1.40;62.23
64189;BME280;50493;50.970;10.082;2023-02-28T05:53:03;100564.53;;;-1.41;54.57
64189;BME280;50493;50.970;10.082;2023-02-28T05:55:28;100555.19;;;-1.58;54.81
64189;BME280;50493;50.970;10.082;2023-02-28T05:57:54;100561.84;;;-1.44;59.80
64189;BME280;50493;50.970;10.082;2023-02-28T06:00:19;100563.38;;;-1.29;54.33
64189;BME280;50493;50.970;10.082;2023-02-28T06:02:45;100561.63;;;-0.91;59.83
64189;BME280;50493;50.970;10.082;2023-02-28T06:05:14;100570.03;;;-1.13;55.84
64189;BME280;50493;50.970;10.082;2023-02-28T06:07:41;100566.75;;;-1.11;57.57
64189;BME280;50493;50.970;10.082;2023-02-28T06:10:09;100558.31;;;-0.89;59.12
64189;BME280;50493;50.970;10.082;2023-02-28T06:12:34;100564.44;;;-0.85;54.46
64189;BME280;50493;50.970;10.082;2023-02-28T06:15:00;100563.50;;;-1.07;63.51
64189;BME280;50493;50.970;10.082;2023-02-28T06:17:25;100561.47;;;-0.75;65.05
64189;BME280;50493;50.970;10.082;2023-02-28T06:19:50;100566.19;;;-0.84;61.83
64189;BME280;50493;50.970;10.082;2023-02-28T06:22:16;100574.19;;;-0.98;57.19
64189;BME280;50493;50.970;10.082;2023-02-28T06:24:43;100562.72;;;-0.86;61.98
64189;BME280;50493;50.970;10.082;2023-02-28T06:27:08;100566.19;;;-0.84;53.34
64189;BME280;50493;50.970;10.082;2023-02-28T06:29:34;100573.00;;;-0.65;62.48
64189;BME280;50493;50.970;10.082;2023-02-28T06:32:00;100582.06;;;-0.73;55.70
64189;BME280;50493;50.970;10.082;2023-02-28T06:34:25;100587.50;;;-0.67;58.63
64189;BME280;50493;50.970;10.082;2023-02-28T06:36:51;100589.31;;;-0.84;53.53
64189;BME280;50493;50.970;10.082;2023-02-28T06:39:17;100588.63;;;-0.80;60.68
64189;BME280;50493;50.970;10.082;2023-02-28T06:41:44;100594.81;;;-0.55;57.28
64189;BME280;50493;50.970;10.082;2023-02-28T06:44:12;100593.50;;;-0.47;60.28
64189;BME280;50493;50.970;10.082;2023-02-28T06:46:38;100592.88;;;-0.41;59.21
64189;BME280;50493;50.970;10.082;2023-02-28T06:49:04;100592.72;;;-0.44;52.77
64189;BME280;50493;50.970;10.082;2023-02-28T06:51:30;100588.84;;;-0.35;55.16
64189;BME280;50493;50.970;10.082;2023-02-28T06:53:55;100594.34;;;-0.47;52.22
64189;BME280;50493;50.970;10.082;2023-02-28T06:56:21;100594.13;;;-0.32;55.64
64189;BME280;50493;50.970;10.082;2023-02-28T06:58:49;100604.41;;;-0.32;57.70
64189;BME280;50493;50.970;10.082;2023-02-28T07:01:14;100609.59;;;-0.71;56.19
64189;BME280;50493;50.970;10.082;2023-02-28T07:03:40;100602.72;;;0.11;55.89
64189;BME280;50493;50.970;10.082;2023-02-28T07:06:06;100599.19;;;1.47;47.07
64189;BME280;50493;50.970;10.082;2023-02-28T07:08:31;100596.34;;;2.72;48.33
64189;BME280;50493;50.970;10.082;2023-02-28T07:10:57;100597.97;;;2.70;43.56
64189;BME280;50493;50.970;10.082;2023-02-28T07:13:24;100598.28;;;2.51;44.98
64189;BME280;50493;50.970;10.082;2023-02-28T07:15:57;100601.84;;;2.85;47.29
64189;BME280;50493;50.970;10.082;2023-02-28T07:18:23;100601.53;;;3.33;42.01
64189;BME280;50493;50.970;10.082;2023-02-28T07:20:49;100590.44;;;4.42;45.43
64189;BME280;50493;50.970;10.082;2023-02-28T07:23:14;100590.75;;;4.98;43.79
64189;BME280;50493;50.970;10.082;2023-02-28T07:25:40;100590.06;;;5.49;41.91
64189;BME280;50493;50.970;10.082;2023-02-28T07:28:05;100600.03;;;5.76;42.87
64189;BME280;50493;50.970;10.082;2023-02-28T07:30:30;100601.56;;;5.19;36.71
64189;BME280;50493;50.970;10.082;2023-02-28T07:32:57;100594.13;;;4.93;41.24
64189;BME280;50493;50.970;10.082;2023-02-28T07:35:23;100588.00;;;4.90;39.04
64189;BME280;50493;50.970;10.082;2023-02-28T07:37:49;100591.09;;;5.59;41.88
64189;BME280;50493;50.970;10.082;2023-02-28T07:40:15;100592.47;;;5.89;39.05
64189;BME280;50493;50.970;10.082;2023-02-28T07:42:41;100596.03;;;5.94;35.44
64189;BME280;50493;50.970;10.082;2023-02-28T07:45:08;100592.63;;;6.55;39.36
64189;BME280;50493;50.970;10.082;2023-02-28T07:47:36;100593.66;;;5.13;43.11
64189;BME280;50493;50.970;10.082;2023-02-28T07:50:03;100600.34;;;3.87;36.05
64189;BME280;50493;50.970;10.082;2023-02-28T07:52:28;100590.78;;;5.43;43.22
64189;BME280;50493;50.970;10.082;2023-02-28T07:54:54;100589.94;;;5.92;41.97
64189;BME280;50493;50.970;10.082;2023-02-28T07:57:19;100600.81;;;4.82;35.44
64189;BME280;50493;50.970;10.082;2023-02-28T07:59:44;100597.19;;;5.17;36.37
64189;BME280;50493;50.970;10.082;2023-02-28T08:02:12;100595.63;;;6.23;34.59
64189;BME280;50493;50.970;10.082;2023-02-28T08:04:37;100607.00;;;4.13;36.80
64189;BME280;50493;50.970;10.082;2023-02-28T08:07:04;100607.06;;;2.86;38.66
64189;BME280;50493;50.970;10.082;2023-02-28T08:09:29;100598.91;;;3.01;42.65
64189;BME280;50493;50.970;10.082;2023-02-28T08:11:55;100597.22;;;3.66;39.03
64189;BME280;50493;50.970;10.082;2023-02-28T08:14:20;100591.63;;;4.19;41.29
64189;BME280;50493;50.970;10.082;2023-02-28T08:16:46;100597.06;;;3.60;38.52
64189;BME280;50493;50.970;10.082;2023-02-28T08:19:11;100600.28;;;3.51;39.30
64189;BME280;50493;50.970;10.082;2023-02-28T08:21:36;100593.22;;;3.13;39.29
64189;BME280;50493;50.970;10.082;2023-02-28T08:24:04;100588.06;;;5.37;41.49
64189;BME280;50493;50.970;10.082;2023-02-28T08:26:29;100608.25;;;2.13;43.60
64189;BME280;50493;50.970;10.082;2023-02-28T08:28:54;100594.16;;;3.81;43.27
64189;BME280;50493;50.970;10.082;2023-02-28T08:31:20;100590.72;;;3.82;43.70
64189;BME280;50493;50.970;10.082;2023-02-28T08:33:45;100606.00;;;3.39;40.68
64189;BME280;50493;50.970;10.082;2023-02-28T08:36:13;100605.84;;;3.34;48.86
64189;BME280;50493;50.970;10.082;2023-02-28T08:38:40;100608.16;;;2.64;46.11
64189;BME280;50493;50.970;10.082;2023-02-28T08:41:09;100603.06;;;3.92;41.07
64189;BME280;50493;50.970;10.082;2023-02-28T08:43:36;100599.78;;;3.99;41.66
64189;BME280;50493;50.970;10.082;2023-02-28T08:46:03;100607.38;;;2.39;40.35
64189;BME280;50493;50.970;10.082;2023-02-28T08:48:30;100608.78;;;2.86;43.87
64189;BME280;50493;50.970;10.082;2023-02-28T08:50:56;100601.34;;;3.59;43.47
64189;BME280;50493;50.970;10.082;2023-02-28T08:53:22;100598.97;;;4.38;38.67
64189;BME280;50493;50.970;10.082;2023-02-28T08:55:47;100616.06;;;2.42;42.39
64189;BME280;50493;50.970;10.082;2023-02-28T08:58:21;100612.19;;;2.85;38.78
64189;BME280;50493;50.970;10.082;2023-02-28T09:00:46;100604.94;;;3.99;38.01
64189;BME280;50493;50.970;10.082;2023-02-28T09:03:12;100601.63;;;4.80;38.47
64189;BME280;50493;50.970;10.082;2023-02-28T09:05:37;100600.84;;;4.84;44.06
64189;BME280;50493;50.970;10.082;2023-02-28T09:08:03;100600.75;;;4.04;37.44
64189;BME280;50493;50.970;10.082;2023-02-28T09:10:28;100602.97;;;3.89;35.24
64189;BME280;50493;50.970;10.082;2023-02-28T09:12:53;100610.03;;;0.67;40.43
64189;BME280;50493;50.970;10.082;2023-02-28T09:15:20;100615.69;;;0.81;39.16
64189;BME280;50493;50.970;10.082;2023-02-28T09:17:45;100614.63;;;0.98;41.44
64189;BME280;50493;50.970;10.082;2023-02-28T09:20:12;100611.41;;;0.81;49.85
64189;BME280;50493;50.970;10.082;2023-02-28T09:22:37;100615.41;;;0.96;42.62
64189;BME280;50493;50.970;10.082;2023-02-28T09:25:03;100623.91;;;0.27;41.35
64189;BME280;50493;50.970;10.082;2023-02-28T09:27:28;100617.03;;;0.48;45.17
64189;BME280;50493;50.970;10.082;2023-02-28T09:29:53;100618.69;;;1.16;51.35
64189;BME280;50493;50.970;10.082;2023-02-28T09:32:20;100611.25;;;0.10;42.96
64189;BME280;50493;50.970;10.082;2023-02-28T09:34:45;100616.50;;;1.02;48.45
64189;BME280;50493;50.970;10.082;2023-02-28T09:37:11;100619.16;;;1.28;38.89
64189;BME280;50493;50.970;10.082;2023-02-28T09:39:36;100634.59;;;-0.47;41.65
64189;BME280;50493;50.970;10.082;2023-02-28T09:42:02;100639.13;;;-1.18;45.02
64189;BME280;50493;50.970;10.082;2023-02-28T09:44:31;100615.03;;;-1.40;45.14
64189;BME280;50493;50.970;10.082;2023-02-28T09:47:01;100617.97;;;-0.75;43.40
64189;BME280;50493;50.970;10.082;2023-02-28T09:49:37;100618.31;;;-0.67;44.03
64189;BME280;50493;50.970;10.082;2023-02-28T09:52:09;100611.94;;;0.50;50.37
64189;BME280;50493;50.970;10.082;2023-02-28T09:54:36;100612.19;;;1.26;51.87
64189;BME280;50493;50.970;10.082;2023-02-28T09:57:07;100606.56;;;2.13;52.46
64189;BME280;50493;50.970;10.082;2023-02-28T09:59:41;100609.84;;;1.32;58.54
64189;BME280;50493;50.970;10.082;2023-02-28T10:02:20;100611.09;;;1.69;41.98
64189;BME280;50493;50.970;10.082;2023-02-28T10:04:50;100613.00;;;2.00;39.49
64189;BME280;50493;50.970;10.082;2023-02-28T10:07:29;100610.38;;;2.26;40.25
64189;BME280;50493;50.970;10.082;2023-02-28T10:10:03;100600.50;;;3.27;43.65
64189;BME280;50493;50.970;10.082;2023-02-28T10:12:31;100606.59;;;2.98;39.08
64189;BME280;50493;50.970;10.082;2023-02-28T10:14:58;100608.38;;;3.98;50.19
64189;BME280;50493;50.970;10.082;2023-02-28T10:17:26;100609.22;;;3.64;37.24
64189;BME280;50493;50.970;10.082;2023-02-28T10:19:58;100602.16;;;3.24;38.61
64189;BME280;50493;50.970;10.082;2023-02-28T10:22:29;100613.19;;;2.61;39.91
64189;BME280;50493;50.970;10.082;2023-02-28T10:24:58;100626.53;;;1.93;40.05
64189;BME280;50493;50.970;10.082;2023-02-28T10:27:30;100621.09;;;1.35;48.43
64189;BME280;50493;50.970;10.082;2023-02-28T10:29:57;100619.28;;;0.62;41.74
64189;BME280;50493;50.970;10.082;2023-02-28T10:32:24;100620.56;;;1.20;62.41
64189;BME280;50493;50.970;10.082;2023-02-28T10:34:51;100636.38;;;-0.25;43.47
64189;BME280;50493;50.970;10.082;2023-02-28T10:37:19;100627.16;;;0.89;61.25
64189;BME280;50493;50.970;10.082;2023-02-28T10:39:46;100624.81;;;0.50;43.35
64189;BME280;50493;50.970;10.082;2023-02-28T10:42:25;100621.25;;;0.92;40.58
64189;BME280;50493;50.970;10.082;2023-02-28T10:45:12;100616.19;;;1.17;41.69
64189;BME280;50493;50.970;10.082;2023-02-28T10:47:48;100612.91;;;1.71;41.25
64189;BME280;50493;50.970;10.082;2023-02-28T10:50:27;100618.66;;;0.46;50.79
64189;BME280;50493;50.970;10.082;2023-02-28T10:52:55;100618.00;;;1.20;41.42
64189;BME280;50493;50.970;10.082;2023-02-28T10:55:30;100614.28;;;1.86;51.44
64189;BME280;50493;50.970;10.082;2023-02-28T10:57:56;100625.28;;;1.08;39.24
64189;BME280;50493;50.970;10.082;2023-02-28T11:00:23;100608.69;;;0.77;42.64
64189;BME280;50493;50.970;10.082;2023-02-28T11:02:52;100616.72;;;1.57;41.34
64189;BME280;50493;50.970;10.082;2023-02-28T11:05:28;100603.44;;;2.51;40.12
64189;BME280;50493;50.970;10.082;2023-02-28T11:07:56;100596.66;;;2.27;43.24
64189;BME280;50493;50.970;10.082;2023-02-28T11:10:25;100597.22;;;2.17;39.03
64189;BME280;50493;50.970;10.082;2023-02-28T11:12:54;100582.22;;;3.52;39.37
64189;BME280;50493;50.970;10.082;2023-02-28T11:15:23;100585.69;;;3.88;52.15
64189;BME280;50493;50.970;10.082;2023-02-28T11:17:54;100585.56;;;5.40;42.14
64189;BME280;50493;50.970;10.082;2023-02-28T11:20:22;100589.00;;;4.17;37.87
64189;BME280;50493;50.970;10.082;2023-02-28T11:22:49;100580.59;;;5.07;43.32
64189;BME280;50493;50.970;10.082;2023-02-28T11:25:22;100569.06;;;5.38;52.77
64189;BME280;50493;50.970;10.082;2023-02-28T11:27:49;100599.69;;;3.96;36.07
64189;BME280;50493;50.970;10.082;2023-02-28T11:30:31;100599.84;;;3.35;38.22
64189;BME280;50493;50.970;10.082;2023-02-28T11:32:57;100568.53;;;4.27;40.06
64189;BME280;50493;50.970;10.082;2023-02-28T11:35:24;100574.06;;;4.05;45.16
64189;BME280;50493;50.970;10.082;2023-02-28T11:37:51;100562.34;;;5.02;34.93
64189;BME280;50493;50.970;10.082;2023-02-28T11:40:22;100557.06;;;3.47;38.16
64189;BME280;50493;50.970;10.082;2023-02-28T11:42:59;100568.34;;;4.19;37.69
64189;BME280;50493;50.970;10.082;2023-02-28T11:45:44;100562.88;;;3.71;37.02
64189;BME280;50493;50.970;10.082;2023-02-28T11:48:17;100576.31;;;2.36;50.12
64189;BME280;50493;50.970;10.082;2023-02-28T11:50:55;100574.16;;;2.50;39.35
64189;BME280;50493;50.970;10.082;2023-02-28T11:53:36;100563.72;;;3.05;42.09
64189;BME280;50493;50.970;10.082;2023-02-28T11:56:08;100561.38;;;4.56;37.51
64189;BME280;50493;50.970;10.082;2023-02-28T11:58:48;100558.59;;;4.88;38.72
64189;BME280;50493;50.970;10.082;2023-02-28T12:01:24;100552.56;;;5.33;51.97
64189;BME280;50493;50.970;10.082;2023-02-28T12:03:59;100563.63;;;5.70;54.45
64189;BME280;50493;50.970;10.082;2023-02-28T12:06:33;100560.63;;;4.62;40.95
64189;BME280;50493;50.970;10.082;2023-02-28T12:09:14;100555.78;;;3.64;50.24
64189;BME280;50493;50.970;10.082;2023-02-28T12:11:51;100572.16;;;2.70;41.41
64189;BME280;50493;50.970;10.082;2023-02-28T12:14:42;100561.00;;;4.37;43.25
64189;BME280;50493;50.970;10.082;2023-02-28T12:17:20;100554.31;;;5.34;60.44
64189;BME280;50493;50.970;10.082;2023-02-28T12:19:54;100551.66;;;5.79;39.37
64189;BME280;50493;50.970;10.082;2023-02-28T12:22:31;100546.63;;;4.93;36.55
64189;BME280;50493;50.970;10.082;2023-02-28T12:25:37;100555.72;;;4.34;40.64
64189;BME280;50493;50.970;10.082;2023-02-28T12:28:08;100551.47;;;3.98;42.64
64189;BME280;50493;50.970;10.082;2023-02-28T12:30:38;100551.78;;;3.76;38.77
64189;BME280;50493;50.970;10.082;2023-02-28T12:33:09;100541.63;;;4.59;44.04
64189;BME280;50493;50.970;10.082;2023-02-28T12:35:38;100540.72;;;5.00;46.97
64189;BME280;50493;50.970;10.082;2023-02-28T12:38:10;100533.06;;;3.51;45.33
64189;BME280;50493;50.970;10.082;2023-02-28T12:40:44;100534.63;;;4.16;40.02
64189;BME280;50493;50.970;10.082;2023-02-28T12:43:13;100549.34;;;2.55;44.15
64189;BME280;50493;50.970;10.082;2023-02-28T12:45:42;100540.19;;;2.36;40.87
64189;BME280;50493;50.970;10.082;2023-02-28T12:48:11;100535.03;;;3.28;42.21
64189;BME280;50493;50.970;10.082;2023-02-28T12:50:39;100537.06;;;2.47;40.30
64189;BME280;50493;50.970;10.082;2023-02-28T12:53:09;100531.13;;;2.22;42.72
64189;BME280;50493;50.970;10.082;2023-02-28T12:55:42;100531.13;;;2.80;41.11
64189;BME280;50493;50.970;10.082;2023-02-28T12:58:18;100518.09;;;3.05;48.50
64189;BME280;50493;50.970;10.082;2023-02-28T13:01:07;100523.72;;;3.57;62.86
64189;BME280;50493;50.970;10.082;2023-02-28T13:03:56;100516.91;;;3.96;42.79